sensor_id;sensor_type;location;lat;lon;timestamp;temperature;humidity
18337;DHT22;9294;51.106;7.028;2022-11-11T00:01:54;21.30;99.90
18337;DHT22;9294;51.106;7.028;2022-11-11T00:04:21;21.30;99.90
18337;DHT22;9294;51.106;7.028;2022-11-11T00:06:47;21.30;99.90
18337;DHT22;9294;51.106;7.028;2022-11-11T00:09:15;21.30;99.90
18337;DHT22;9294;51.106;7.028;2022-11-11T00:11:43;21.40;99.90
18337;DHT22;9294;51.106;7.028;2022-11-11T00:14:10;21.40;99.90
18337;DHT22;9294;51.106;7.028;2022-11-11T00:16:37;21.40;99.90
18337;DHT22;9294;51.106;7.028;2022-11-11T00:19:17;21.30;99.90
18337;DHT22;9294;51.106;7.028;2022-11-11T00:22:01;21.30;99.90
18337;DHT22;9294;51.106;7.028;2022-11-11T00:24:46;21.30;99.90
18337;DHT22;9294;51.106;7.028;2022-11-11T00:27:31;21.30;99.90
18337;DHT22;9294;51.106;7.028;2022-11-11T00:29:58;21.30;99.90
18337;DHT22;9294;51.106;7.028;2022-11-11T00:32:25;21.30;99.90
18337;DHT22;9294;51.106;7.028;2022-11-11T00:34:54;21.30;99.90
18337;DHT22;9294;51.106;7.028;2022-11-11T00:37:40;21.30;99.90
18337;DHT22;9294;51.106;7.028;2022-11-11T00:40:08;21.30;99.90
18337;DHT22;9294;51.106;7.028;2022-11-11T00:42:36;21.30;99.90
18337;DHT22;9294;51.106;7.028;2022-11-11T00:45:04;21.30;99.90
18337;DHT22;9294;51.106;7.028;2022-11-11T00:47:31;21.30;99.90
18337;DHT22;9294;51.106;7.028;2022-11-11T00:50:16;21.30;99.90
18337;DHT22;9294;51.106;7.028;2022-11-11T00:53:03;21.20;99.90
18337;DHT22;9294;51.106;7.028;2022-11-11T00:55:30;21.20;99.90
18337;DHT22;9294;51.106;7.028;2022-11-11T00:57:58;21.30;99.90
18337;DHT22;9294;51.106;7.028;2022-11-11T01:00:25;21.20;99.90
18337;DHT22;9294;51.106;7.028;2022-11-11T01:02:51;21.30;99.90
18337;DHT22;9294;51.106;7.028;2022-11-11T01:05:18;21.30;99.90
18337;DHT22;9294;51.106;7.028;2022-11-11T01:07:46;21.30;99.90
18337;DHT22;9294;51.106;7.028;2022-11-11T01:10:14;21.30;99.90
18337;DHT22;9294;51.106;7.028;2022-11-11T01:13:04;21.30;99.90
18337;DHT22;9294;51.106;7.028;2022-11-11T01:15:37;21.30;99.90
18337;DHT22;9294;51.106;7.028;2022-11-11T01:18:04;21.30;99.90
18337;DHT22;9294;51.106;7.028;2022-11-11T01:20:31;21.30;99.90
18337;DHT22;9294;51.106;7.028;2022-11-11T01:22:58;21.40;99.90
18337;DHT22;9294;51.106;7.028;2022-11-11T01:25:25;21.40;99.90
18337;DHT22;9294;51.106;7.028;2022-11-11T01:27:51;21.30;99.90
18337;DHT22;9294;51.106;7.028;2022-11-11T01:30:19;21.30;99.90
18337;DHT22;9294;51.106;7.028;2022-11-11T01:32:46;21.20;99.90
18337;DHT22;9294;51.106;7.028;2022-11-11T01:35:13;21.30;99.90
18337;DHT22;9294;51.106;7.028;2022-11-11T01:37:39;21.30;99.90
18337;DHT22;9294;51.106;7.028;2022-11-11T01:40:08;21.40;99.90
18337;DHT22;9294;51.106;7.028;2022-11-11T01:42:45;21.20;99.90
18337;DHT22;9294;51.106;7.028;2022-11-11T01:45:46;21.30;99.90
18337;DHT22;9294;51.106;7.028;2022-11-11T01:48:18;21.20;99.90
18337;DHT22;9294;51.106;7.028;2022-11-11T01:51:04;21.20;99.90
18337;DHT22;9294;51.106;7.028;2022-11-11T01:53:31;21.20;99.90
18337;DHT22;9294;51.106;7.028;2022-11-11T01:55:58;21.20;99.90
18337;DHT22;9294;51.106;7.028;2022-11-11T01:58:26;21.20;99.90
18337;DHT22;9294;51.106;7.028;2022-11-11T02:00:55;21.30;99.90
18337;DHT22;9294;51.106;7.028;2022-11-11T02:03:24;21.20;99.90
18337;DHT22;9294;51.106;7.028;2022-11-11T02:05:51;21.20;99.90
18337;DHT22;9294;51.106;7.028;2022-11-11T02:08:21;21.20;99.90
18337;DHT22;9294;51.106;7.028;2022-11-11T02:10:58;21.20;99.90
18337;DHT22;9294;51.106;7.028;2022-11-11T02:13:26;21.20;99.90
18337;DHT22;9294;51.106;7.028;2022-11-11T02:16:11;21.20;99.90
18337;DHT22;9294;51.106;7.028;2022-11-11T02:18:38;21.20;99.90
18337;DHT22;9294;51.106;7.028;2022-11-11T02:21:06;21.30;99.90
18337;DHT22;9294;51.106;7.028;2022-11-11T02:23:36;21.30;99.90
18337;DHT22;9294;51.106;7.028;2022-11-11T02:26:08;21.30;99.90
18337;DHT22;9294;51.106;7.028;2022-11-11T02:28:37;21.30;99.90
18337;DHT22;9294;51.106;7.028;2022-11-11T02:31:04;21.30;99.90
18337;DHT22;9294;51.106;7.028;2022-11-11T02:33:31;21.30;99.90
18337;DHT22;9294;51.106;7.028;2022-11-11T02:35:58;21.40;99.90
18337;DHT22;9294;51.106;7.028;2022-11-11T02:38:26;21.30;99.90
18337;DHT22;9294;51.106;7.028;2022-11-11T02:40:53;21.40;99.90
18337;DHT22;9294;51.106;7.028;2022-11-11T02:43:39;21.30;99.90
18337;DHT22;9294;51.106;7.028;2022-11-11T02:46:06;21.30;99.90
18337;DHT22;9294;51.106;7.028;2022-11-11T02:48:33;21.40;99.90
18337;DHT22;9294;51.106;7.028;2022-11-11T02:51:00;21.40;99.90
18337;DHT22;9294;51.106;7.028;2022-11-11T02:53:27;21.40;99.90
18337;DHT22;9294;51.106;7.028;2022-11-11T02:55:53;21.40;99.90
18337;DHT22;9294;51.106;7.028;2022-11-11T02:58:20;21.40;99.90
18337;DHT22;9294;51.106;7.028;2022-11-11T03:00:48;21.30;99.90
18337;DHT22;9294;51.106;7.028;2022-11-11T03:03:15;21.40;99.90
18337;DHT22;9294;51.106;7.028;2022-11-11T03:05:41;21.40;99.90
18337;DHT22;9294;51.106;7.028;2022-11-11T03:08:08;21.40;99.90
18337;DHT22;9294;51.106;7.028;2022-11-11T03:10:35;21.50;99.90
18337;DHT22;9294;51.106;7.028;2022-11-11T03:13:01;21.50;99.90
18337;DHT22;9294;51.106;7.028;2022-11-11T03:15:28;21.50;99.90
18337;DHT22;9294;51.106;7.028;2022-11-11T03:17:56;21.50;99.90
18337;DHT22;9294;51.106;7.028;2022-11-11T03:20:22;21.50;99.90
18337;DHT22;9294;51.106;7.028;2022-11-11T03:23:08;21.50;99.90
18337;DHT22;9294;51.106;7.028;2022-11-11T03:25:37;21.50;99.90
18337;DHT22;9294;51.106;7.028;2022-11-11T03:28:04;21.50;99.90
18337;DHT22;9294;51.106;7.028;2022-11-11T03:30:31;21.50;99.90
18337;DHT22;9294;51.106;7.028;2022-11-11T03:33:00;21.50;99.90
18337;DHT22;9294;51.106;7.028;2022-11-11T03:35:27;21.50;99.90
18337;DHT22;9294;51.106;7.028;2022-11-11T03:37:53;21.50;99.90
18337;DHT22;9294;51.106;7.028;2022-11-11T03:40:37;21.50;99.90
18337;DHT22;9294;51.106;7.028;2022-11-11T03:43:04;21.50;99.90
18337;DHT22;9294;51.106;7.028;2022-11-11T03:45:31;21.40;99.90
18337;DHT22;9294;51.106;7.028;2022-11-11T03:47:58;21.50;99.90
18337;DHT22;9294;51.106;7.028;2022-11-11T03:50:26;21.40;99.90
18337;DHT22;9294;51.106;7.028;2022-11-11T03:52:52;21.30;99.90
18337;DHT22;9294;51.106;7.028;2022-11-11T03:55:19;21.40;99.90
18337;DHT22;9294;51.106;7.028;2022-11-11T03:57:46;21.40;99.90
18337;DHT22;9294;51.106;7.028;2022-11-11T04:00:15;21.40;99.90
18337;DHT22;9294;51.106;7.028;2022-11-11T04:02:42;21.30;99.90
18337;DHT22;9294;51.106;7.028;2022-11-11T04:05:28;21.30;99.90
18337;DHT22;9294;51.106;7.028;2022-11-11T04:08:14;21.40;99.90
18337;DHT22;9294;51.106;7.028;2022-11-11T04:11:00;21.40;99.90
18337;DHT22;9294;51.106;7.028;2022-11-11T04:13:29;21.40;99.90
18337;DHT22;9294;51.106;7.028;2022-11-11T04:16:13;21.30;99.90
18337;DHT22;9294;51.106;7.028;2022-11-11T04:18:40;21.30;99.90
18337;DHT22;9294;51.106;7.028;2022-11-11T04:21:25;21.30;99.90
18337;DHT22;9294;51.106;7.028;2022-11-11T04:24:12;21.30;99.90
18337;DHT22;9294;51.106;7.028;2022-11-11T04:26:58;21.30;99.90
18337;DHT22;9294;51.106;7.028;2022-11-11T04:29:25;21.30;99.90
18337;DHT22;9294;51.106;7.028;2022-11-11T04:31:55;21.30;99.90
18337;DHT22;9294;51.106;7.028;2022-11-11T04:34:39;21.20;99.90
18337;DHT22;9294;51.106;7.028;2022-11-11T04:37:07;21.20;99.90
18337;DHT22;9294;51.106;7.028;2022-11-11T04:39:34;21.20;99.90
18337;DHT22;9294;51.106;7.028;2022-11-11T04:42:18;21.20;99.90
18337;DHT22;9294;51.106;7.028;2022-11-11T04:44:45;21.30;99.90
18337;DHT22;9294;51.106;7.028;2022-11-11T04:47:30;21.20;99.90
18337;DHT22;9294;51.106;7.028;2022-11-11T04:49:56;21.00;99.90
18337;DHT22;9294;51.106;7.028;2022-11-11T04:52:24;21.10;99.90
18337;DHT22;9294;51.106;7.028;2022-11-11T04:54:55;21.10;99.90
18337;DHT22;9294;51.106;7.028;2022-11-11T04:57:40;21.10;99.90
18337;DHT22;9294;51.106;7.028;2022-11-11T05:00:09;21.10;99.90
18337;DHT22;9294;51.106;7.028;2022-11-11T05:02:36;21.20;99.90
18337;DHT22;9294;51.106;7.028;2022-11-11T05:05:20;21.20;99.90
18337;DHT22;9294;51.106;7.028;2022-11-11T05:07:49;21.30;99.90
18337;DHT22;9294;51.106;7.028;2022-11-11T05:10:33;21.40;99.90
18337;DHT22;9294;51.106;7.028;2022-11-11T05:13:00;21.40;99.90
18337;DHT22;9294;51.106;7.028;2022-11-11T05:15:44;21.50;99.90
18337;DHT22;9294;51.106;7.028;2022-11-11T05:18:29;21.60;99.90
18337;DHT22;9294;51.106;7.028;2022-11-11T05:21:16;21.60;99.90
18337;DHT22;9294;51.106;7.028;2022-11-11T05:23:48;21.60;99.90
18337;DHT22;9294;51.106;7.028;2022-11-11T05:26:32;21.60;99.90
18337;DHT22;9294;51.106;7.028;2022-11-11T05:28:59;21.60;99.90
18337;DHT22;9294;51.106;7.028;2022-11-11T05:31:27;21.70;99.90
18337;DHT22;9294;51.106;7.028;2022-11-11T05:33:53;21.70;99.90
18337;DHT22;9294;51.106;7.028;2022-11-11T05:36:20;21.80;99.90
18337;DHT22;9294;51.106;7.028;2022-11-11T05:38:48;21.80;99.90
18337;DHT22;9294;51.106;7.028;2022-11-11T05:41:15;21.80;99.90
18337;DHT22;9294;51.106;7.028;2022-11-11T05:43:41;21.70;99.90
18337;DHT22;9294;51.106;7.028;2022-11-11T05:46:08;21.80;99.90
18337;DHT22;9294;51.106;7.028;2022-11-11T05:48:35;21.80;99.90
18337;DHT22;9294;51.106;7.028;2022-11-11T05:51:21;21.80;99.90
18337;DHT22;9294;51.106;7.028;2022-11-11T05:53:55;21.80;99.90
18337;DHT22;9294;51.106;7.028;2022-11-11T05:56:21;21.80;99.90
18337;DHT22;9294;51.106;7.028;2022-11-11T05:58:48;21.80;99.90
18337;DHT22;9294;51.106;7.028;2022-11-11T06:01:15;21.90;99.90
18337;DHT22;9294;51.106;7.028;2022-11-11T06:03:41;21.90;99.90
18337;DHT22;9294;51.106;7.028;2022-11-11T06:06:08;21.90;99.90
18337;DHT22;9294;51.106;7.028;2022-11-11T06:08:35;21.90;99.90
18337;DHT22;9294;51.106;7.028;2022-11-11T06:11:03;22.00;99.90
18337;DHT22;9294;51.106;7.028;2022-11-11T06:13:30;22.00;99.90
18337;DHT22;9294;51.106;7.028;2022-11-11T06:15:57;22.00;99.90
18337;DHT22;9294;51.106;7.028;2022-11-11T06:18:24;22.10;99.90
18337;DHT22;9294;51.106;7.028;2022-11-11T06:20:52;22.00;99.90
18337;DHT22;9294;51.106;7.028;2022-11-11T06:23:19;21.90;99.90
18337;DHT22;9294;51.106;7.028;2022-11-11T06:25:46;21.90;99.90
18337;DHT22;9294;51.106;7.028;2022-11-11T06:28:32;21.90;99.90
18337;DHT22;9294;51.106;7.028;2022-11-11T06:30:59;21.90;99.90
18337;DHT22;9294;51.106;7.028;2022-11-11T06:33:25;21.90;99.90
18337;DHT22;9294;51.106;7.028;2022-11-11T06:35:52;21.90;99.90
18337;DHT22;9294;51.106;7.028;2022-11-11T06:38:19;21.90;99.90
18337;DHT22;9294;51.106;7.028;2022-11-11T06:40:46;21.80;99.90
18337;DHT22;9294;51.106;7.028;2022-11-11T06:43:13;21.70;99.90
18337;DHT22;9294;51.106;7.028;2022-11-11T06:45:41;21.80;99.90
18337;DHT22;9294;51.106;7.028;2022-11-11T06:48:08;21.70;99.90
18337;DHT22;9294;51.106;7.028;2022-11-11T06:50:35;21.70;99.90
18337;DHT22;9294;51.106;7.028;2022-11-11T06:53:05;21.70;99.90
18337;DHT22;9294;51.106;7.028;2022-11-11T06:55:32;21.70;99.90
18337;DHT22;9294;51.106;7.028;2022-11-11T06:58:04;21.70;99.90
18337;DHT22;9294;51.106;7.028;2022-11-11T07:00:30;21.60;99.90
18337;DHT22;9294;51.106;7.028;2022-11-11T07:02:59;21.60;99.90
18337;DHT22;9294;51.106;7.028;2022-11-11T07:05:25;21.60;99.90
18337;DHT22;9294;51.106;7.028;2022-11-11T07:07:52;21.50;99.90
18337;DHT22;9294;51.106;7.028;2022-11-11T07:10:19;21.60;99.90
18337;DHT22;9294;51.106;7.028;2022-11-11T07:12:45;21.70;99.90
18337;DHT22;9294;51.106;7.028;2022-11-11T07:15:12;21.70;99.90
18337;DHT22;9294;51.106;7.028;2022-11-11T07:17:40;21.60;99.90
18337;DHT22;9294;51.106;7.028;2022-11-11T07:20:09;21.70;99.90
18337;DHT22;9294;51.106;7.028;2022-11-11T07:22:36;21.60;99.90
18337;DHT22;9294;51.106;7.028;2022-11-11T07:25:03;21.60;99.90
18337;DHT22;9294;51.106;7.028;2022-11-11T07:27:30;21.50;99.90
18337;DHT22;9294;51.106;7.028;2022-11-11T07:29:57;21.60;99.90
18337;DHT22;9294;51.106;7.028;2022-11-11T07:32:23;21.60;99.90
18337;DHT22;9294;51.106;7.028;2022-11-11T07:34:50;21.50;99.90
18337;DHT22;9294;51.106;7.028;2022-11-11T07:37:18;21.50;99.90
18337;DHT22;9294;51.106;7.028;2022-11-11T07:39:45;21.60;99.90
18337;DHT22;9294;51.106;7.028;2022-11-11T07:42:11;21.60;99.90
18337;DHT22;9294;51.106;7.028;2022-11-11T07:44:38;21.50;99.90
18337;DHT22;9294;51.106;7.028;2022-11-11T07:47:05;21.40;99.90
18337;DHT22;9294;51.106;7.028;2022-11-11T07:49:31;21.40;99.90
18337;DHT22;9294;51.106;7.028;2022-11-11T07:51:58;21.30;99.90
18337;DHT22;9294;51.106;7.028;2022-11-11T07:54:26;21.30;99.90
18337;DHT22;9294;51.106;7.028;2022-11-11T07:56:53;21.30;99.90
18337;DHT22;9294;51.106;7.028;2022-11-11T07:59:19;21.30;99.90
18337;DHT22;9294;51.106;7.028;2022-11-11T08:01:46;21.30;99.90
18337;DHT22;9294;51.106;7.028;2022-11-11T08:04:13;21.30;99.90
18337;DHT22;9294;51.106;7.028;2022-11-11T08:06:39;21.30;99.90
18337;DHT22;9294;51.106;7.028;2022-11-11T08:09:06;21.20;99.90
18337;DHT22;9294;51.106;7.028;2022-11-11T08:11:34;21.30;99.90
18337;DHT22;9294;51.106;7.028;2022-11-11T08:14:18;21.60;99.90
18337;DHT22;9294;51.106;7.028;2022-11-11T08:16:45;21.60;99.90
18337;DHT22;9294;51.106;7.028;2022-11-11T08:19:11;21.80;99.90
18337;DHT22;9294;51.106;7.028;2022-11-11T08:21:38;21.90;99.90
18337;DHT22;9294;51.106;7.028;2022-11-11T08:24:05;22.00;99.90
18337;DHT22;9294;51.106;7.028;2022-11-11T08:26:34;22.00;99.90
18337;DHT22;9294;51.106;7.028;2022-11-11T08:29:01;22.10;99.90
18337;DHT22;9294;51.106;7.028;2022-11-11T08:31:28;22.00;99.90
18337;DHT22;9294;51.106;7.028;2022-11-11T08:33:54;22.10;99.90
18337;DHT22;9294;51.106;7.028;2022-11-11T08:36:21;22.20;99.90
18337;DHT22;9294;51.106;7.028;2022-11-11T08:38:49;22.10;99.90
18337;DHT22;9294;51.106;7.028;2022-11-11T08:41:16;22.10;99.90
18337;DHT22;9294;51.106;7.028;2022-11-11T08:43:44;22.10;99.90
18337;DHT22;9294;51.106;7.028;2022-11-11T08:46:10;22.20;99.90
18337;DHT22;9294;51.106;7.028;2022-11-11T08:48:37;22.20;99.90
18337;DHT22;9294;51.106;7.028;2022-11-11T08:51:04;22.10;99.90
18337;DHT22;9294;51.106;7.028;2022-11-11T08:53:30;22.00;99.90
18337;DHT22;9294;51.106;7.028;2022-11-11T08:56:00;22.00;99.90
18337;DHT22;9294;51.106;7.028;2022-11-11T08:58:26;22.10;99.90
18337;DHT22;9294;51.106;7.028;2022-11-11T09:00:54;22.00;99.90
18337;DHT22;9294;51.106;7.028;2022-11-11T09:03:21;22.10;99.90
18337;DHT22;9294;51.106;7.028;2022-11-11T09:05:48;22.00;99.90
18337;DHT22;9294;51.106;7.028;2022-11-11T09:08:15;22.00;99.90
18337;DHT22;9294;51.106;7.028;2022-11-11T09:10:41;22.00;99.90
18337;DHT22;9294;51.106;7.028;2022-11-11T09:13:08;22.00;99.90
18337;DHT22;9294;51.106;7.028;2022-11-11T09:15:35;21.90;99.90
18337;DHT22;9294;51.106;7.028;2022-11-11T09:18:03;21.90;99.90
18337;DHT22;9294;51.106;7.028;2022-11-11T09:20:30;22.00;99.90
18337;DHT22;9294;51.106;7.028;2022-11-11T09:22:56;22.10;99.90
18337;DHT22;9294;51.106;7.028;2022-11-11T09:25:23;22.10;99.90
18337;DHT22;9294;51.106;7.028;2022-11-11T09:27:53;22.10;99.90
18337;DHT22;9294;51.106;7.028;2022-11-11T09:30:21;22.10;99.90
18337;DHT22;9294;51.106;7.028;2022-11-11T09:32:48;22.10;99.90
18337;DHT22;9294;51.106;7.028;2022-11-11T09:35:16;22.10;99.90
18337;DHT22;9294;51.106;7.028;2022-11-11T09:37:52;22.00;99.90
18337;DHT22;9294;51.106;7.028;2022-11-11T09:40:21;22.00;99.90
18337;DHT22;9294;51.106;7.028;2022-11-11T09:42:55;21.90;99.90
18337;DHT22;9294;51.106;7.028;2022-11-11T09:45:27;21.90;99.90
18337;DHT22;9294;51.106;7.028;2022-11-11T09:48:01;21.80;99.90
18337;DHT22;9294;51.106;7.028;2022-11-11T09:50:35;21.90;99.90
18337;DHT22;9294;51.106;7.028;2022-11-11T09:53:10;22.10;99.90
18337;DHT22;9294;51.106;7.028;2022-11-11T09:55:41;22.30;99.90
18337;DHT22;9294;51.106;7.028;2022-11-11T09:58:14;22.30;99.90
18337;DHT22;9294;51.106;7.028;2022-11-11T10:00:45;22.40;99.90
18337;DHT22;9294;51.106;7.028;2022-11-11T10:03:16;22.40;99.90
18337;DHT22;9294;51.106;7.028;2022-11-11T10:05:50;22.50;99.90
18337;DHT22;9294;51.106;7.028;2022-11-11T10:08:22;22.30;99.90
18337;DHT22;9294;51.106;7.028;2022-11-11T10:10:52;22.20;99.40
18337;DHT22;9294;51.106;7.028;2022-11-11T10:13:22;22.10;99.40
18337;DHT22;9294;51.106;7.028;2022-11-11T10:15:56;22.30;99.30
18337;DHT22;9294;51.106;7.028;2022-11-11T10:18:33;22.20;99.00
18337;DHT22;9294;51.106;7.028;2022-11-11T10:21:10;22.10;99.30
18337;DHT22;9294;51.106;7.028;2022-11-11T10:23:39;22.00;99.90
18337;DHT22;9294;51.106;7.028;2022-11-11T10:26:11;21.90;99.90
18337;DHT22;9294;51.106;7.028;2022-11-11T10:28:42;21.90;99.90
18337;DHT22;9294;51.106;7.028;2022-11-11T10:31:14;21.90;99.90
18337;DHT22;9294;51.106;7.028;2022-11-11T10:33:45;21.90;99.90
18337;DHT22;9294;51.106;7.028;2022-11-11T10:36:16;21.90;99.90
18337;DHT22;9294;51.106;7.028;2022-11-11T10:38:48;21.90;99.90
18337;DHT22;9294;51.106;7.028;2022-11-11T10:41:19;22.00;99.90
18337;DHT22;9294;51.106;7.028;2022-11-11T10:43:47;22.00;99.90
18337;DHT22;9294;51.106;7.028;2022-11-11T10:46:16;21.90;99.90
18337;DHT22;9294;51.106;7.028;2022-11-11T10:48:50;22.00;99.90
18337;DHT22;9294;51.106;7.028;2022-11-11T10:51:20;22.10;99.90
18337;DHT22;9294;51.106;7.028;2022-11-11T10:53:53;22.10;99.90
18337;DHT22;9294;51.106;7.028;2022-11-11T10:56:26;22.10;99.90
18337;DHT22;9294;51.106;7.028;2022-11-11T10:59:00;22.10;99.90
18337;DHT22;9294;51.106;7.028;2022-11-11T11:01:32;22.10;99.90
18337;DHT22;9294;51.106;7.028;2022-11-11T11:04:03;22.10;99.90
18337;DHT22;9294;51.106;7.028;2022-11-11T11:06:36;22.10;99.90
18337;DHT22;9294;51.106;7.028;2022-11-11T11:09:08;22.10;99.90
18337;DHT22;9294;51.106;7.028;2022-11-11T11:11:40;22.10;99.90
18337;DHT22;9294;51.106;7.028;2022-11-11T11:14:14;22.00;99.90
18337;DHT22;9294;51.106;7.028;2022-11-11T11:16:46;21.90;99.90
18337;DHT22;9294;51.106;7.028;2022-11-11T11:19:17;21.90;99.90
18337;DHT22;9294;51.106;7.028;2022-11-11T11:21:52;21.90;99.90
18337;DHT22;9294;51.106;7.028;2022-11-11T11:24:24;21.90;99.90
18337;DHT22;9294;51.106;7.028;2022-11-11T11:26:53;21.90;99.90
18337;DHT22;9294;51.106;7.028;2022-11-11T11:29:24;21.80;99.90
18337;DHT22;9294;51.106;7.028;2022-11-11T11:31:52;21.80;99.90
18337;DHT22;9294;51.106;7.028;2022-11-11T11:34:19;21.80;99.90
18337;DHT22;9294;51.106;7.028;2022-11-11T11:36:59;21.80;99.90
18337;DHT22;9294;51.106;7.028;2022-11-11T11:39:36;21.80;99.90
18337;DHT22;9294;51.106;7.028;2022-11-11T11:42:03;21.90;99.90
18337;DHT22;9294;51.106;7.028;2022-11-11T11:44:31;21.80;99.90
18337;DHT22;9294;51.106;7.028;2022-11-11T11:47:07;21.90;99.90
18337;DHT22;9294;51.106;7.028;2022-11-11T11:49:50;21.80;99.90
18337;DHT22;9294;51.106;7.028;2022-11-11T11:52:27;21.90;99.90
18337;DHT22;9294;51.106;7.028;2022-11-11T11:55:04;21.70;99.90
18337;DHT22;9294;51.106;7.028;2022-11-11T11:57:42;21.80;99.90
18337;DHT22;9294;51.106;7.028;2022-11-11T12:00:16;21.80;99.90
18337;DHT22;9294;51.106;7.028;2022-11-11T12:03:02;21.90;99.90
18337;DHT22;9294;51.106;7.028;2022-11-11T12:05:36;21.80;99.90
18337;DHT22;9294;51.106;7.028;2022-11-11T12:08:15;21.80;99.90
18337;DHT22;9294;51.106;7.028;2022-11-11T12:10:48;21.80;99.90
18337;DHT22;9294;51.106;7.028;2022-11-11T12:13:27;21.90;99.90
18337;DHT22;9294;51.106;7.028;2022-11-11T12:16:01;21.80;99.90
18337;DHT22;9294;51.106;7.028;2022-11-11T12:18:43;21.80;99.90
18337;DHT22;9294;51.106;7.028;2022-11-11T12:21:13;21.80;99.90
18337;DHT22;9294;51.106;7.028;2022-11-11T12:24:00;21.90;99.90
18337;DHT22;9294;51.106;7.028;2022-11-11T12:26:35;22.00;99.90
18337;DHT22;9294;51.106;7.028;2022-11-11T12:29:13;22.20;99.90
18337;DHT22;9294;51.106;7.028;2022-11-11T12:32:02;22.30;99.90
18337;DHT22;9294;51.106;7.028;2022-11-11T12:34:47;22.40;99.90
18337;DHT22;9294;51.106;7.028;2022-11-11T12:37:21;22.40;99.90
18337;DHT22;9294;51.106;7.028;2022-11-11T12:40:03;22.40;99.90
18337;DHT22;9294;51.106;7.028;2022-11-11T12:42:44;22.30;99.90
18337;DHT22;9294;51.106;7.028;2022-11-11T12:45:16;22.10;99.90
18337;DHT22;9294;51.106;7.028;2022-11-11T12:47:54;21.90;99.90
18337;DHT22;9294;51.106;7.028;2022-11-11T12:50:25;21.80;99.90
18337;DHT22;9294;51.106;7.028;2022-11-11T12:53:10;21.70;99.90
18337;DHT22;9294;51.106;7.028;2022-11-11T12:55:56;21.70;99.90
18337;DHT22;9294;51.106;7.028;2022-11-11T12:58:29;21.70;99.90
18337;DHT22;9294;51.106;7.028;2022-11-11T13:01:09;21.70;99.90
18337;DHT22;9294;51.106;7.028;2022-11-11T13:03:48;21.60;99.90
18337;DHT22;9294;51.106;7.028;2022-11-11T13:06:24;21.60;99.90
18337;DHT22;9294;51.106;7.028;2022-11-11T13:09:14;21.60;99.90
18337;DHT22;9294;51.106;7.028;2022-11-11T13:11:55;21.70;99.90
18337;DHT22;9294;51.106;7.028;2022-11-11T13:14:48;21.90;99.90
18337;DHT22;9294;51.106;7.028;2022-11-11T13:17:17;22.00;99.90
18337;DHT22;9294;51.106;7.028;2022-11-11T13:19:47;22.00;99.90
18337;DHT22;9294;51.106;7.028;2022-11-11T13:22:21;22.00;99.90
18337;DHT22;9294;51.106;7.028;2022-11-11T13:24:49;22.00;99.90
18337;DHT22;9294;51.106;7.028;2022-11-11T13:32:28;22.20;99.90
18337;DHT22;9294;51.106;7.028;2022-11-11T13:34:58;22.00;99.90
18337;DHT22;9294;51.106;7.028;2022-11-11T13:37:27;21.90;99.90
18337;DHT22;9294;51.106;7.028;2022-11-11T13:39:59;21.90;99.90
18337;DHT22;9294;51.106;7.028;2022-11-11T13:42:35;21.90;99.90
18337;DHT22;9294;51.106;7.028;2022-11-11T13:45:05;21.80;99.90
18337;DHT22;9294;51.106;7.028;2022-11-11T13:47:36;21.70;99.90
18337;DHT22;9294;51.106;7.028;2022-11-11T13:50:05;21.70;99.90
18337;DHT22;9294;51.106;7.028;2022-11-11T13:52:35;21.80;99.90
18337;DHT22;9294;51.106;7.028;2022-11-11T13:55:05;21.70;99.90
18337;DHT22;9294;51.106;7.028;2022-11-11T13:57:48;21.70;99.90
18337;DHT22;9294;51.106;7.028;2022-11-11T14:00:25;21.90;99.90
18337;DHT22;9294;51.106;7.028;2022-11-11T14:08:53;22.30;99.90
18337;DHT22;9294;51.106;7.028;2022-11-11T14:11:29;22.30;99.90
18337;DHT22;9294;51.106;7.028;2022-11-11T14:13:58;22.40;99.90
18337;DHT22;9294;51.106;7.028;2022-11-11T14:17:00;22.40;99.90
18337;DHT22;9294;51.106;7.028;2022-11-11T14:19:28;22.40;99.90
18337;DHT22;9294;51.106;7.028;2022-11-11T14:21:58;22.10;99.90
18337;DHT22;9294;51.106;7.028;2022-11-11T14:24:30;21.80;99.90
18337;DHT22;9294;51.106;7.028;2022-11-11T14:27:00;21.90;99.90
18337;DHT22;9294;51.106;7.028;2022-11-11T14:29:31;22.00;99.90
18337;DHT22;9294;51.106;7.028;2022-11-11T14:32:21;22.10;99.90
18337;DHT22;9294;51.106;7.028;2022-11-11T14:35:12;22.10;99.90
18337;DHT22;9294;51.106;7.028;2022-11-11T14:38:02;21.90;99.90
18337;DHT22;9294;51.106;7.028;2022-11-11T14:40:32;21.70;99.90
18337;DHT22;9294;51.106;7.028;2022-11-11T14:42:59;21.90;99.90
18337;DHT22;9294;51.106;7.028;2022-11-11T14:45:52;22.10;99.90
18337;DHT22;9294;51.106;7.028;2022-11-11T14:48:59;22.00;99.90
18337;DHT22;9294;51.106;7.028;2022-11-11T14:51:47;22.00;99.90
18337;DHT22;9294;51.106;7.028;2022-11-11T14:54:28;22.20;99.90
18337;DHT22;9294;51.106;7.028;2022-11-11T14:57:00;22.10;99.90
18337;DHT22;9294;51.106;7.028;2022-11-11T14:59:29;22.10;99.90
18337;DHT22;9294;51.106;7.028;2022-11-11T15:01:58;22.00;99.90
18337;DHT22;9294;51.106;7.028;2022-11-11T15:04:26;21.90;99.90
18337;DHT22;9294;51.106;7.028;2022-11-11T15:06:57;21.90;99.90
18337;DHT22;9294;51.106;7.028;2022-11-11T15:09:40;21.80;99.90
18337;DHT22;9294;51.106;7.028;2022-11-11T15:12:19;21.80;99.90
18337;DHT22;9294;51.106;7.028;2022-11-11T15:14:55;21.80;99.90
18337;DHT22;9294;51.106;7.028;2022-11-11T15:17:33;21.80;99.90
18337;DHT22;9294;51.106;7.028;2022-11-11T15:20:18;21.80;99.90
18337;DHT22;9294;51.106;7.028;2022-11-11T15:22:59;21.80;99.90
18337;DHT22;9294;51.106;7.028;2022-11-11T15:25:36;21.80;99.90
18337;DHT22;9294;51.106;7.028;2022-11-11T15:28:13;21.80;99.90
18337;DHT22;9294;51.106;7.028;2022-11-11T15:30:59;21.80;99.90
18337;DHT22;9294;51.106;7.028;2022-11-11T15:33:40;21.90;99.90
18337;DHT22;9294;51.106;7.028;2022-11-11T15:36:14;21.80;99.90
18337;DHT22;9294;51.106;7.028;2022-11-11T15:38:43;21.80;99.90
18337;DHT22;9294;51.106;7.028;2022-11-11T15:41:21;21.80;99.90
18337;DHT22;9294;51.106;7.028;2022-11-11T15:43:48;21.80;99.90
18337;DHT22;9294;51.106;7.028;2022-11-11T15:46:22;21.70;99.90
18337;DHT22;9294;51.106;7.028;2022-11-11T15:48:52;21.90;99.90
18337;DHT22;9294;51.106;7.028;2022-11-11T15:51:28;21.80;99.90
18337;DHT22;9294;51.106;7.028;2022-11-11T15:56:35;21.60;99.90
18337;DHT22;9294;51.106;7.028;2022-11-11T15:59:15;21.60;99.90
18337;DHT22;9294;51.106;7.028;2022-11-11T16:01:42;21.60;99.90
18337;DHT22;9294;51.106;7.028;2022-11-11T16:04:15;21.50;99.90
18337;DHT22;9294;51.106;7.028;2022-11-11T16:06:43;21.50;99.90
18337;DHT22;9294;51.106;7.028;2022-11-11T16:09:12;21.40;99.90
18337;DHT22;9294;51.106;7.028;2022-11-11T16:11:39;21.40;99.90
18337;DHT22;9294;51.106;7.028;2022-11-11T16:14:20;21.50;99.90
18337;DHT22;9294;51.106;7.028;2022-11-11T16:16:49;21.70;99.90
18337;DHT22;9294;51.106;7.028;2022-11-11T16:19:31;21.70;99.90
18337;DHT22;9294;51.106;7.028;2022-11-11T16:22:02;21.70;99.90
18337;DHT22;9294;51.106;7.028;2022-11-11T16:24:32;21.80;99.90
18337;DHT22;9294;51.106;7.028;2022-11-11T16:27:01;22.00;99.90
18337;DHT22;9294;51.106;7.028;2022-11-11T16:29:33;22.00;99.90